Time;durP1;ratioP1;P1;durP2;ratioP2;P2;SDS_P1;SDS_P2;PMS_P1;PMS_P2;Temp;Humidity;BMP_temperature;BMP_pressure;BME280_temperature;BME280_humidity;BME280_pressure;Samples;Min_cycle;Max_cycle;Signal;HPM_P1;HPM_P2
2023/01/29 00:01:33;;;;;;;44.97;20.17;;;;;;;1.43;100.00;102941.13;4999755;28;20160;-71
2023/01/29 00:03:59;;;;;;;46.75;20.35;;;;;;;1.64;100.00;102934.28;5002095;28;20041;-71
2023/01/29 00:06:25;;;;;;;48.70;20.52;;;;;;;1.57;100.00;102927.22;4991116;28;20046;-71
2023/01/29 00:08:50;;;;;;;40.90;19.73;;;;;;;1.49;100.00;102937.66;4997588;28;20132;-71
2023/01/29 00:11:16;;;;;;;46.42;20.60;;;;;;;1.56;100.00;102928.97;4977743;28;20050;-71
2023/01/29 00:13:42;;;;;;;49.10;21.45;;;;;;;1.68;100.00;102938.69;5003196;28;20800;-71
2023/01/29 00:16:08;;;;;;;44.45;20.35;;;;;;;1.57;100.00;102933.34;4992924;28;20045;-71
2023/01/29 00:18:37;;;;;;;44.65;19.67;;;;;;;1.46;100.00;102930.66;4996398;28;20113;-71
2023/01/29 00:21:03;;;;;;;44.90;18.30;;;;;;;1.75;100.00;102930.84;4986524;28;20073;-71
2023/01/29 00:23:28;;;;;;;44.45;19.77;;;;;;;1.78;100.00;102933.50;4996463;28;20458;-71
2023/01/29 00:25:58;;;;;;;42.70;19.48;;;;;;;1.77;100.00;102931.75;4991884;28;20034;-71
2023/01/29 00:28:23;;;;;;;44.17;20.00;;;;;;;1.72;100.00;102920.31;4999961;28;20049;-71
2023/01/29 00:30:48;;;;;;;42.97;19.20;;;;;;;1.65;100.00;102929.00;4985312;28;20038;-71
2023/01/29 00:33:14;;;;;;;48.80;20.88;;;;;;;1.71;100.00;102921.19;4997334;28;20041;-71
2023/01/29 00:35:40;;;;;;;46.45;19.23;;;;;;;1.47;100.00;102919.25;4986454;28;20494;-71
2023/01/29 00:38:06;;;;;;;41.47;19.23;;;;;;;1.63;100.00;102911.47;4995010;28;20050;-71
2023/01/29 00:44:56;;;;;;;42.22;19.05;;;;;;;1.68;100.00;102912.38;5002464;28;20034;-71
2023/01/29 00:46:01;;;;;;;43.95;19.73;;;;;;;1.64;100.00;102887.81;5002036;28;20048;-71
2023/01/29 00:48:26;;;;;;;41.55;20.25;;;;;;;1.67;100.00;102882.59;4982040;28;20406;-71
2023/01/29 00:50:52;;;;;;;43.30;19.65;;;;;;;1.59;100.00;102883.41;4981052;28;20038;-71
2023/01/29 00:53:18;;;;;;;44.67;19.40;;;;;;;1.57;100.00;102886.03;4992743;28;20058;-71
2023/01/29 00:55:43;;;;;;;45.28;19.13;;;;;;;1.67;100.00;102885.22;4997307;28;20038;-71
2023/01/29 00:58:09;;;;;;;44.88;19.13;;;;;;;1.42;100.00;102880.66;4997669;28;20046;-71
2023/01/29 01:00:34;;;;;;;44.30;18.27;;;;;;;1.54;100.00;102873.72;5002478;28;20041;-70
2023/01/29 01:03:05;;;;;;;42.70;19.48;;;;;;;1.65;100.00;102873.78;4991872;28;20104;-71
2023/01/29 01:05:31;;;;;;;41.33;17.90;;;;;;;1.46;100.00;102879.81;5003352;28;20046;-71
2023/01/29 01:07:58;;;;;;;42.20;18.73;;;;;;;1.45;100.00;102886.81;5003895;28;20041;-71
2023/01/29 01:10:31;;;;;;;39.38;17.48;;;;;;;1.51;100.00;102886.00;4992730;28;20498;-71
2023/01/29 01:12:58;;;;;;;;;;;;;;;1.28;100.00;102891.06;4999094;28;20872;-71
2023/01/29 01:15:26;;;;;;;42.58;18.48;;;;;;;1.40;100.00;102885.00;4999518;28;19917;-71
2023/01/29 01:17:57;;;;;;;42.60;20.13;;;;;;;1.47;100.00;102887.72;4975428;28;20051;-71
2023/01/29 01:20:23;;;;;;;47.67;21.52;;;;;;;1.56;100.00;102892.16;4976701;28;20085;-71
2023/01/29 01:22:50;;;;;;;51.63;22.23;;;;;;;1.65;100.00;102886.94;4996997;28;20938;-71
2023/01/29 01:25:17;;;;;;;46.22;20.20;;;;;;;1.64;100.00;102890.44;4999433;28;20052;-71
2023/01/29 01:27:43;;;;;;;44.75;21.13;;;;;;;1.63;100.00;102895.72;4986330;28;20069;-71
2023/01/29 01:30:14;;;;;;;42.55;21.13;;;;;;;1.56;100.00;102889.53;4995112;28;20070;-70
2023/01/29 01:32:41;;;;;;;46.92;21.75;;;;;;;1.54;100.00;102879.00;4981188;28;20038;-71
2023/01/29 01:35:08;;;;;;;46.70;21.25;;;;;;;1.50;100.00;102881.56;4997714;28;20676;-71
2023/01/29 01:37:37;;;;;;;44.85;21.83;;;;;;;1.59;100.00;102894.78;5002866;28;20053;-71
2023/01/29 01:40:16;;;;;;;47.90;22.80;;;;;;;1.56;100.00;102894.78;4984885;28;20042;-71
2023/01/29 01:42:43;;;;;;;48.15;21.58;;;;;;;1.56;100.00;102889.53;4998985;28;20499;-71
2023/01/29 01:45:38;;;;;;;48.53;23.17;;;;;;;1.52;100.00;102888.63;4991273;28;20065;-71
2023/01/29 01:48:11;;;;;;;52.15;23.30;;;;;;;1.54;100.00;102886.00;4998666;28;20600;-71
2023/01/29 01:50:55;;;;;;;50.25;22.13;;;;;;;1.59;100.00;102879.03;5003172;28;20030;-71
2023/01/29 01:53:48;;;;;;;51.55;25.17;;;;;;;1.52;100.00;102882.50;5005827;28;20049;-71
2023/01/29 01:56:20;;;;;;;45.30;22.77;;;;;;;1.40;100.00;102874.50;5005262;28;20049;-71
2023/01/29 01:58:50;;;;;;;48.45;21.65;;;;;;;1.50;100.00;102874.56;5004347;28;20042;-71
2023/01/29 02:01:17;;;;;;;47.35;21.85;;;;;;;1.33;100.00;102881.47;4996235;28;20042;-70
2023/01/29 02:09:35;;;;;;;48.75;22.45;;;;;;;1.35;100.00;102891.97;5003864;28;20046;-70
2023/01/29 02:12:06;;;;;;;52.45;21.98;;;;;;;1.34;100.00;102890.22;4981377;28;20042;-71
2023/01/29 02:14:37;;;;;;;47.97;21.10;;;;;;;1.33;100.00;102891.97;5001640;28;20053;-71
2023/01/29 02:17:03;;;;;;;43.55;20.55;;;;;;;1.29;100.00;102900.69;5000151;28;20480;-70
2023/01/29 02:19:47;;;;;;;53.33;22.20;;;;;;;1.29;100.00;102903.31;5003561;28;20598;-71
2023/01/29 02:22:24;;;;;;;45.28;20.65;;;;;;;1.19;100.00;102896.22;4993798;28;20050;-71
2023/01/29 02:25:28;;;;;;;45.10;20.73;;;;;;;1.14;100.00;102893.56;5000517;28;20034;-71
2023/01/29 02:28:22;;;;;;;43.03;19.25;;;;;;;1.28;100.00;102894.56;4942699;28;20520;-71
2023/01/29 02:31:05;;;;;;;47.70;19.25;;;;;;;1.26;100.00;102903.31;5002767;28;20152;-71
2023/01/29 02:33:59;;;;;;;49.20;20.65;;;;;;;1.33;100.00;102886.72;4979939;28;20042;-71
2023/01/29 02:36:44;;;;;;;48.40;19.27;;;;;;;1.40;100.00;102890.25;4990239;28;20037;-71
2023/01/29 02:39:35;;;;;;;41.78;18.15;;;;;;;1.42;100.00;102892.06;4991687;28;20082;-72
2023/01/29 02:42:10;;;;;;;42.72;19.25;;;;;;;1.46;100.00;102890.34;4981654;28;20121;-71
2023/01/29 02:44:41;;;;;;;50.90;20.52;;;;;;;1.23;100.00;102887.53;4992455;28;20041;-71
2023/01/29 02:47:21;;;;;;;50.75;21.05;;;;;;;1.43;100.00;102891.19;4990778;28;20849;-71
2023/01/29 02:49:56;;;;;;;46.90;19.98;;;;;;;1.45;100.00;102894.69;4979164;28;20029;-71
2023/01/29 02:52:30;;;;;;;50.08;20.48;;;;;;;1.35;100.00;102887.59;5008949;28;20045;-71
2023/01/29 02:55:09;;;;;;;48.28;20.92;;;;;;;1.47;100.00;102903.47;5003391;28;20052;-71
2023/01/29 02:57:45;;;;;;;40.58;17.77;;;;;;;1.31;100.00;102900.75;4985642;28;20118;-71
2023/01/29 03:00:16;;;;;;;45.53;20.58;;;;;;;1.24;100.00;102907.66;4978485;28;20511;-71
2023/01/29 03:02:49;;;;;;;48.15;19.95;;;;;;;1.26;100.00;102906.81;4983734;28;20085;-71
2023/01/29 03:05:25;;;;;;;44.53;19.83;;;;;;;1.44;100.00;102898.19;5000107;28;20498;-71
2023/01/29 03:07:57;;;;;;;47.67;22.23;;;;;;;1.43;100.00;102906.06;4997059;28;20120;-71
2023/01/29 03:10:37;;;;;;;50.55;19.98;;;;;;;1.40;100.00;102896.41;4978005;28;20614;-71
2023/01/29 03:13:11;;;;;;;45.30;19.77;;;;;;;1.48;100.00;102901.72;4987975;28;20463;-70
2023/01/29 03:15:46;;;;;;;52.00;19.92;;;;;;;1.45;100.00;102899.06;4973348;28;20664;-71
2023/01/29 03:18:29;;;;;;;44.55;20.48;;;;;;;1.48;100.00;102894.72;4970700;28;20046;-71
2023/01/29 03:21:48;;;;;;;49.58;21.25;;;;;;;1.53;100.00;102893.00;4985427;28;20144;-71
2023/01/29 03:32:22;;;;;;;46.72;21.13;;;;;;;1.59;100.00;102870.25;4984146;28;21356;-71
2023/01/29 03:34:57;;;;;;;49.30;22.60;;;;;;;1.25;100.00;102865.63;4982280;28;20034;-71
2023/01/29 03:37:45;;;;;;;52.85;23.45;;;;;;;1.27;100.00;102865.66;4974835;28;20061;-71
2023/01/29 03:40:11;;;;;;;50.08;21.67;;;;;;;1.43;100.00;102857.00;4992495;28;20148;-71
2023/01/29 03:43:17;;;;;;;48.42;21.25;;;;;;;1.27;100.00;102857.78;4992060;28;20860;-71
2023/01/29 03:46:07;;;;;;;52.10;23.45;;;;;;;1.32;100.00;102842.03;4936012;28;20050;-70
2023/01/29 03:48:46;;;;;;;54.13;21.52;;;;;;;1.40;100.00;102842.97;4980679;28;20046;-71
2023/01/29 03:51:27;;;;;;;52.13;22.63;;;;;;;1.38;100.00;102836.81;4977640;28;20157;-71
2023/01/29 03:54:25;;;;;;;43.35;20.38;;;;;;;1.42;100.00;102841.25;4972234;28;20562;-71
2023/01/29 03:57:30;;;;;;;58.90;23.17;;;;;;;1.22;100.00;102836.72;4968222;28;20121;-71
2023/01/29 04:00:12;;;;;;;47.08;22.10;;;;;;;1.26;100.00;102829.75;4983006;28;20037;-72
2023/01/29 04:03:20;;;;;;;52.83;23.20;;;;;;;1.17;100.00;102827.03;5000454;28;20052;-71
2023/01/29 04:05:57;;;;;;;55.35;23.55;;;;;;;1.31;100.00;102828.03;4993035;28;20029;-71
2023/01/29 04:08:31;;;;;;;56.92;24.80;;;;;;;1.30;100.00;102813.09;5001435;28;20042;-71
2023/01/29 04:11:05;;;;;;;51.22;22.20;;;;;;;1.39;100.00;102820.19;4979191;28;20037;-71
2023/01/29 04:13:32;;;;;;;50.28;21.60;;;;;;;1.29;100.00;102842.88;4992710;28;20069;-71
2023/01/29 04:16:00;;;;;;;53.47;21.17;;;;;;;1.37;100.00;102842.97;4994768;28;20058;-71
2023/01/29 04:18:47;;;;;;;48.08;20.83;;;;;;;1.37;100.00;102848.22;4990128;28;20065;-71
2023/01/29 04:21:13;;;;;;;47.38;21.83;;;;;;;1.37;100.00;102829.81;4968782;28;20171;-70
2023/01/29 04:23:41;;;;;;;45.22;19.33;;;;;;;1.22;100.00;102830.59;4985660;28;20057;-70
2023/01/29 04:26:44;;;;;;;51.85;20.83;;;;;;;1.23;100.00;102814.81;4983721;28;20038;-70
2023/01/29 04:29:30;;;;;;;47.80;21.42;;;;;;;1.20;100.00;102808.66;4979967;28;20787;-71
2023/01/29 04:32:17;;;;;;;49.22;20.33;;;;;;;1.38;100.00;102798.28;4993755;28;20092;-70
2023/01/29 04:35:00;;;;;;;52.78;21.40;;;;;;;1.28;100.00;102789.44;4999186;28;20041;-71
2023/01/29 04:37:32;;;;;;;;;;;;;;;1.35;100.00;102787.72;5008720;28;20045;-71
2023/01/29 04:40:09;;;;;;;51.08;22.48;;;;;;;1.33;100.00;102785.97;5009690;28;19925;-70
2023/01/29 04:42:48;;;;;;;50.08;20.98;;;;;;;1.25;100.00;102788.53;5001681;28;20155;-71
2023/01/29 04:45:36;;;;;;;46.17;21.85;;;;;;;1.18;100.00;102787.63;5002507;28;20050;-71
2023/01/29 04:48:24;;;;;;;45.70;21.83;;;;;;;1.25;100.00;102791.16;4994941;28;20152;-71
2023/01/29 04:51:04;;;;;;;55.28;24.45;;;;;;;1.28;100.00;102791.22;5006657;28;20037;-76
2023/01/29 04:53:49;;;;;;;54.50;22.58;;;;;;;1.37;100.00;102798.28;4991733;28;20053;-71
2023/01/29 04:56:47;;;;;;;59.53;24.08;;;;;;;1.29;100.00;102792.97;4997112;28;20145;-73
2023/01/29 04:59:19;;;;;;;52.95;23.17;;;;;;;1.18;100.00;102785.00;4997443;28;20050;-71
2023/01/29 05:01:47;;;;;;;58.65;24.50;;;;;;;1.24;100.00;102786.78;4988547;28;20048;-71
2023/01/29 05:04:19;;;;;;;51.40;22.23;;;;;;;1.25;100.00;102786.78;5008413;28;20781;-71
2023/01/29 05:06:48;;;;;;;55.78;23.40;;;;;;;1.27;100.00;102776.31;5003741;28;20038;-71
2023/01/29 05:09:16;;;;;;;55.47;21.98;;;;;;;1.37;100.00;102775.50;5007855;28;20703;-71
2023/01/29 05:11:44;;;;;;;53.58;22.52;;;;;;;1.26;100.00;102785.94;5001003;28;20043;-71
2023/01/29 05:14:12;;;;;;;51.88;20.92;;;;;;;1.38;100.00;102776.38;5000481;28;20037;-71
2023/01/29 05:16:43;;;;;;;54.55;21.98;;;;;;;1.42;100.00;102779.03;4992014;28;20034;-71
2023/01/29 05:19:12;;;;;;;53.37;21.63;;;;;;;1.29;100.00;102780.69;4996163;28;20053;-73
2023/01/29 05:21:40;;;;;;;50.25;21.60;;;;;;;1.35;100.00;102782.47;4991328;28;20760;-70
2023/01/29 05:24:21;;;;;;;51.00;21.13;;;;;;;1.39;100.00;102771.13;5013406;28;20053;-71
2023/01/29 05:29:34;;;;;;;53.45;21.25;;;;;;;1.42;100.00;102784.28;5005270;28;20045;-71
2023/01/29 05:31:59;;;;;;;47.28;21.45;;;;;;;1.53;100.00;102773.84;4998288;28;20033;-71
2023/01/29 05:34:25;;;;;;;46.42;20.45;;;;;;;1.49;100.00;102777.31;5007679;28;20054;-71
2023/01/29 05:36:50;;;;;;;47.97;21.17;;;;;;;1.57;100.00;102782.63;5005094;28;20441;-71
2023/01/29 05:39:16;;;;;;;50.15;21.63;;;;;;;1.48;100.00;102786.94;4999144;28;20686;-71
2023/01/29 05:41:42;;;;;;;51.75;22.00;;;;;;;1.59;100.00;102801.91;4998665;28;20593;-71
2023/01/29 05:44:09;;;;;;;51.47;22.05;;;;;;;1.45;100.00;102796.56;5006081;28;20045;-71
2023/01/29 05:46:34;;;;;;;50.92;21.92;;;;;;;1.45;100.00;102805.31;4992109;28;20046;-71
2023/01/29 05:49:00;;;;;;;51.17;23.00;;;;;;;1.48;100.00;102813.22;5003434;28;20557;-71
2023/01/29 05:51:25;;;;;;;47.80;21.60;;;;;;;1.51;100.00;102813.25;5000614;28;20057;-71
2023/01/29 05:53:51;;;;;;;49.15;21.73;;;;;;;1.59;100.00;102809.78;5004015;28;20048;-71
2023/01/29 05:56:16;;;;;;;51.17;22.65;;;;;;;1.60;100.00;102799.25;5003592;28;20239;-71
2023/01/29 05:58:42;;;;;;;57.13;22.85;;;;;;;1.57;100.00;102812.41;4980650;28;20062;-71
2023/01/29 06:01:17;;;;;;;47.70;21.60;;;;;;;1.51;100.00;102810.63;5004439;28;20041;-70
2023/01/29 06:03:44;;;;;;;57.72;24.17;;;;;;;1.57;100.00;102801.03;5001973;28;20044;-71
2023/01/29 06:06:10;;;;;;;49.13;21.13;;;;;;;1.51;100.00;102797.50;5004015;28;20038;-71
2023/01/29 06:08:35;;;;;;;52.33;22.88;;;;;;;1.57;100.00;102793.13;4998948;28;20050;-71
2023/01/29 06:11:01;;;;;;;55.83;22.80;;;;;;;1.52;100.00;102791.34;5003959;28;20034;-71
2023/01/29 06:13:27;;;;;;;54.85;24.50;;;;;;;1.53;100.00;102784.34;5003681;28;20071;-71
2023/01/29 06:15:52;;;;;;;62.15;23.75;;;;;;;1.41;100.00;102779.03;4990655;28;20053;-71
2023/01/29 06:18:18;;;;;;;57.25;23.55;;;;;;;1.37;100.00;102775.50;4997234;28;20137;-71
2023/01/29 06:20:43;;;;;;;52.15;23.95;;;;;;;1.41;100.00;102776.41;5001693;28;20523;-71
2023/01/29 06:23:09;;;;;;;55.20;24.05;;;;;;;1.40;100.00;102772.00;4980117;28;20407;-71
2023/01/29 06:25:34;;;;;;;58.47;22.83;;;;;;;1.36;100.00;102770.25;4986251;28;20112;-71
2023/01/29 06:28:00;;;;;;;60.45;24.35;;;;;;;1.34;100.00;102772.84;5000000;28;20045;-71
2023/01/29 06:30:27;;;;;;;53.85;23.48;;;;;;;1.34;100.00;102764.06;5004026;28;20049;-71
2023/01/29 06:32:55;;;;;;;57.75;24.85;;;;;;;1.32;100.00;102765.84;4993630;28;20038;-71
2023/01/29 06:35:24;;;;;;;53.83;24.00;;;;;;;1.51;100.00;102759.81;5001062;28;20446;-71
2023/01/29 06:37:49;;;;;;;56.38;24.02;;;;;;;1.40;100.00;102761.47;4994204;28;20069;-71
2023/01/29 06:40:19;;;;;;;53.38;23.58;;;;;;;1.46;100.00;102765.03;4991238;28;20046;-71
2023/01/29 06:42:44;;;;;;;61.75;25.00;;;;;;;1.44;100.00;102760.63;5003632;28;20046;-71
2023/01/29 06:45:10;;;;;;;64.03;26.13;;;;;;;1.61;100.00;102763.34;4990685;28;20049;-71
2023/01/29 06:47:35;;;;;;;60.60;25.83;;;;;;;1.33;100.00;102767.59;4996834;28;20042;-71
2023/01/29 06:50:02;;;;;;;59.83;25.50;;;;;;;1.42;100.00;102771.16;4998263;28;20053;-71
2023/01/29 06:52:29;;;;;;;61.20;27.00;;;;;;;1.32;100.00;102763.22;4996766;28;20042;-71
2023/01/29 06:54:55;;;;;;;64.93;28.85;;;;;;;1.38;100.00;102768.50;4994616;28;20099;-70
2023/01/29 06:57:21;;;;;;;61.30;25.65;;;;;;;1.43;100.00;102769.41;5003613;28;20030;-70
2023/01/29 06:59:48;;;;;;;59.63;25.33;;;;;;;1.46;100.00;102777.31;4993136;28;20579;-71
2023/01/29 07:02:13;;;;;;;64.65;26.75;;;;;;;1.31;100.00;102771.97;5002297;28;20038;-71
2023/01/29 07:04:40;;;;;;;55.95;24.92;;;;;;;1.29;100.00;102780.69;5004730;28;20096;-71
2023/01/29 07:07:11;;;;;;;63.75;27.10;;;;;;;1.41;100.00;102773.78;4999593;28;20037;-71
2023/01/29 07:09:42;;;;;;;59.85;24.90;;;;;;;1.45;100.00;102765.00;5005792;28;20045;-71
2023/01/29 07:12:10;;;;;;;55.42;23.73;;;;;;;1.37;100.00;102762.34;5002382;28;20785;-71
2023/01/29 07:14:43;;;;;;;64.90;26.30;;;;;;;1.23;100.00;102754.38;4998262;28;20042;-71
2023/01/29 07:17:10;;;;;;;60.95;25.08;;;;;;;1.47;100.00;102760.66;4989978;28;20553;-71
2023/01/29 07:19:35;;;;;;;66.03;26.65;;;;;;;1.32;100.00;102763.22;5000407;28;20050;-71
2023/01/29 07:22:02;;;;;;;65.28;27.02;;;;;;;1.32;100.00;102760.56;4996122;28;20104;-71
2023/01/29 07:24:30;;;;;;;60.65;24.67;;;;;;;1.51;100.00;102759.81;4998764;28;20045;-71
2023/01/29 07:26:55;;;;;;;58.75;24.50;;;;;;;1.41;100.00;102751.00;5002592;28;20248;-71
2023/01/29 07:29:21;;;;;;;64.55;24.55;;;;;;;1.35;100.00;102745.69;4992049;28;20113;-72
2023/01/29 07:31:46;;;;;;;59.17;26.38;;;;;;;1.47;100.00;102745.75;5000078;28;20450;-72
2023/01/29 07:34:12;;;;;;;66.53;26.90;;;;;;;1.41;100.00;102743.13;4999402;28;20479;-71
2023/01/29 07:36:37;;;;;;;54.75;25.70;;;;;;;1.46;100.00;102756.28;4997445;28;20046;-72
2023/01/29 07:39:03;;;;;;;57.83;24.13;;;;;;;1.50;100.00;102758.91;4996649;28;20152;-71
2023/01/29 07:41:28;;;;;;;56.95;25.23;;;;;;;1.48;100.00;102758.03;4996762;28;20042;-71
2023/01/29 07:43:53;;;;;;;58.05;25.08;;;;;;;1.70;100.00;102763.38;4995695;28;20021;-71
2023/01/29 07:46:19;;;;;;;59.58;27.08;;;;;;;1.60;100.00;102767.72;4110432;28;10000351;-71
2023/01/29 07:48:44;;;;;;;65.80;28.98;;;;;;;1.68;100.00;102768.63;5005710;28;20474;-71
2023/01/29 07:51:10;;;;;;;59.08;24.42;;;;;;;1.66;100.00;102767.78;5001907;28;20487;-71
2023/01/29 07:53:35;;;;;;;56.47;24.30;;;;;;;1.68;100.00;102760.75;5001725;28;20757;-71
2023/01/29 07:56:01;;;;;;;62.55;26.25;;;;;;;1.77;100.00;102776.59;5001498;28;20569;-71
2023/01/29 07:58:26;;;;;;;60.08;25.67;;;;;;;1.72;100.00;102761.66;4981417;28;20765;-71
2023/01/29 08:00:52;;;;;;;58.17;25.55;;;;;;;1.51;100.00;102749.28;4997860;28;20029;-72
2023/01/29 08:03:19;;;;;;;59.22;24.70;;;;;;;1.64;100.00;102735.31;5003092;28;20037;-71
2023/01/29 08:05:46;;;;;;;61.22;26.05;;;;;;;1.70;100.00;102734.47;4978766;28;20109;-71
2023/01/29 08:08:11;;;;;;;61.78;27.30;;;;;;;1.67;100.00;102724.81;4979372;28;20116;-71
2023/01/29 08:10:39;;;;;;;66.53;27.45;;;;;;;1.69;100.00;102725.69;4998339;28;20034;-70
2023/01/29 08:13:05;;;;;;;58.72;25.40;;;;;;;1.91;100.00;102717.88;4999360;28;20061;-72
2023/01/29 08:15:31;;;;;;;59.75;27.17;;;;;;;1.75;100.00;102714.31;4990441;28;20154;-70
2023/01/29 08:17:57;;;;;;;61.97;27.35;;;;;;;1.77;100.00;102716.09;5003328;28;20032;-71
2023/01/29 08:20:22;;;;;;;58.38;25.75;;;;;;;1.84;100.00;102710.84;5004462;28;20393;-70
2023/01/29 08:22:48;;;;;;;66.22;26.45;;;;;;;1.81;100.00;102706.47;4998419;28;20038;-71
2023/01/29 08:25:14;;;;;;;63.28;25.90;;;;;;;1.89;100.00;102699.47;4998870;28;20034;-71
2023/01/29 08:27:40;;;;;;;64.57;27.00;;;;;;;1.78;100.00;102698.56;5000064;28;20049;-71
2023/01/29 08:30:08;;;;;;;53.58;26.08;;;;;;;1.83;100.00;102693.31;4993399;28;20123;-71
2023/01/29 08:32:33;;;;;;;60.33;26.60;;;;;;;1.78;100.00;102677.53;5002130;28;20064;-71
2023/01/29 08:34:59;;;;;;;54.67;25.02;;;;;;;1.92;100.00;102691.59;4995093;28;20586;-71
2023/01/29 08:37:24;;;;;;;57.30;25.27;;;;;;;1.96;100.00;102705.63;4997757;28;20495;-72
2023/01/29 08:39:49;;;;;;;61.63;27.55;;;;;;;1.91;100.00;102687.22;4993477;28;20092;-72
2023/01/29 08:42:15;;;;;;;58.35;26.33;;;;;;;1.96;100.00;102688.09;4989731;28;20048;-71
2023/01/29 08:44:40;;;;;;;68.43;28.02;;;;;;;1.97;100.00;102689.84;4999457;28;20038;-72
2023/01/29 08:47:06;;;;;;;63.10;26.77;;;;;;;2.13;100.00;102688.09;5001807;28;20049;-70
2023/01/29 08:49:31;;;;;;;59.22;26.25;;;;;;;2.08;100.00;102682.84;4999695;28;20053;-70
2023/01/29 08:51:58;;;;;;;62.55;28.33;;;;;;;2.12;100.00;102667.94;4981792;28;20041;-71
2023/01/29 08:54:23;;;;;;;60.42;27.27;;;;;;;2.21;100.00;102681.13;4993449;28;20041;-71
2023/01/29 08:56:50;;;;;;;59.65;26.70;;;;;;;2.05;100.00;102672.28;4987410;28;20042;-71
2023/01/29 08:59:15;;;;;;;55.58;24.05;;;;;;;2.15;100.00;102675.81;4996613;28;20056;-71
2023/01/29 09:01:41;;;;;;;58.70;24.33;;;;;;;2.27;100.00;102674.97;5004039;28;20078;-71
2023/01/29 09:04:06;;;;;;;58.75;24.40;;;;;;;2.36;100.00;102672.34;5003383;28;20369;-71
2023/01/29 09:06:32;;;;;;;61.25;24.85;;;;;;;2.37;100.00;102675.84;4993445;28;20034;-71
2023/01/29 09:08:59;;;;;;;53.95;22.90;;;;;;;2.32;100.00;102676.72;5006247;28;20874;-71
2023/01/29 09:11:27;;;;;;;50.55;22.05;;;;;;;2.25;100.00;102679.34;5002772;28;20137;-71
2023/01/29 09:13:53;;;;;;;52.60;22.83;;;;;;;2.37;100.00;102667.97;5002011;28;20068;-71
2023/01/29 09:16:18;;;;;;;52.70;22.25;;;;;;;2.38;100.00;102672.34;4996637;28;20038;-71
2023/01/29 09:18:44;;;;;;;59.28;23.30;;;;;;;2.51;100.00;102674.06;5002418;28;21020;-71
2023/01/29 09:21:10;;;;;;;52.33;21.67;;;;;;;2.51;100.00;102667.09;5006777;28;20045;-71
2023/01/29 09:23:35;;;;;;;54.45;22.30;;;;;;;2.42;100.00;102667.06;5012688;28;20324;-71
2023/01/29 09:26:01;;;;;;;53.25;23.00;;;;;;;2.40;100.00;102671.44;5008398;28;20041;-71
2023/01/29 09:28:26;;;;;;;52.60;22.67;;;;;;;2.39;100.00;102671.47;5007195;28;20042;-70
2023/01/29 09:30:54;;;;;;;51.35;21.00;;;;;;;2.56;100.00;102675.84;5005354;28;20049;-71
2023/01/29 09:33:20;;;;;;;55.40;21.60;;;;;;;2.38;100.00;102677.59;4991224;28;20136;-71
2023/01/29 09:35:46;;;;;;;44.80;21.15;;;;;;;2.52;100.00;102673.22;5008300;28;20116;-71
2023/01/29 09:38:11;;;;;;;53.25;22.70;;;;;;;2.68;100.00;102676.72;4985458;28;20594;-71
2023/01/29 09:40:52;;;;;;;48.78;21.85;;;;;;;2.83;100.00;102674.94;4133996;28;10000462;-71
2023/01/29 09:43:23;;;;;;;46.83;22.17;;;;;;;2.78;100.00;102675.81;5009263;28;20092;-71
2023/01/29 09:46:24;;;;;;;50.72;22.52;;;;;;;2.82;100.00;102681.09;4991760;28;20042;-71
2023/01/29 09:49:07;;;;;;;44.83;20.20;;;;;;;2.84;100.00;102681.94;5002204;28;20125;-71
2023/01/29 09:51:47;;;;;;;;;;;;;;;2.88;100.00;102692.50;4995863;28;20053;-71
2023/01/29 09:54:22;;;;;;;47.47;22.05;;;;;;;2.81;100.00;102687.25;5006328;28;19921;-71
2023/01/29 09:56:51;;;;;;;46.80;20.60;;;;;;;2.75;100.00;102683.72;4998440;28;20034;-71
2023/01/29 09:59:21;;;;;;;42.63;19.83;;;;;;;2.75;100.00;102681.94;4998690;28;20033;-71
2023/01/29 10:01:52;;;;;;;49.17;21.73;;;;;;;2.72;100.00;102679.34;4999993;28;20672;-71
2023/01/29 10:04:51;;;;;;;51.67;23.80;;;;;;;2.85;100.00;102677.56;4982337;28;20050;-71
2023/01/29 10:07:32;;;;;;;52.85;23.52;;;;;;;2.80;100.00;102680.19;5006506;28;20045;-71
2023/01/29 10:10:12;;;;;;;47.72;21.60;;;;;;;2.88;100.00;102681.94;5006847;28;20033;-72
2023/01/29 10:12:55;;;;;;;46.30;20.63;;;;;;;3.02;100.00;102669.63;5006443;28;20060;-71
2023/01/29 10:15:45;;;;;;;47.13;21.00;;;;;;;2.91;100.00;102671.38;4997762;28;20112;-71
2023/01/29 10:18:28;;;;;;;50.45;21.20;;;;;;;2.88;100.00;102666.16;4999015;28;20035;-71
2023/01/29 10:21:00;;;;;;;50.05;21.85;;;;;;;2.92;100.00;102667.91;5005454;28;20487;-71
2023/01/29 10:23:47;;;;;;;51.08;23.05;;;;;;;3.09;100.00;102664.31;4998233;28;20048;-71
2023/01/29 10:26:12;;;;;;;55.05;23.10;;;;;;;3.16;100.00;102659.91;4999023;28;20137;-71
2023/01/29 10:28:44;;;;;;;46.47;21.23;;;;;;;3.08;100.00;102662.56;4997427;28;20141;-71
2023/01/29 10:31:23;;;;;;;41.70;19.95;;;;;;;3.08;100.00;102659.06;4994711;28;20042;-71
2023/01/29 10:34:00;;;;;;;49.08;22.90;;;;;;;3.14;100.00;102661.69;5001658;28;20073;-71
2023/01/29 10:36:33;;;;;;;58.80;21.48;;;;;;;2.97;100.00;102664.38;4993563;28;20036;-71
2023/01/29 10:38:59;;;;;;;45.33;20.33;;;;;;;3.27;100.00;102663.41;4982122;28;20714;-71
2023/01/29 10:41:27;;;;;;;44.00;22.02;;;;;;;3.22;100.00;102652.00;4978851;28;20039;-71
2023/01/29 10:44:01;;;;;;;50.83;21.27;;;;;;;3.21;100.00;102654.63;4977476;28;20583;-71
2023/01/29 10:46:49;;;;;;;47.33;20.75;;;;;;;3.19;100.00;102646.72;4988724;28;20479;-71
2023/01/29 10:49:45;;;;;;;48.80;21.73;;;;;;;3.43;100.00;102640.47;4980770;28;20070;-71
2023/01/29 10:52:28;;;;;;;52.88;20.38;;;;;;;3.44;100.00;102642.22;4992639;28;20048;-71
2023/01/29 10:55:01;;;;;;;43.75;21.48;;;;;;;3.32;100.00;102632.63;4980319;28;20788;-71
2023/01/29 10:57:59;;;;;;;43.35;18.83;;;;;;;3.54;100.00;102630.75;4990686;28;20053;-71
2023/01/29 11:00:39;;;;;;;41.40;19.38;;;;;;;3.37;99.41;102624.69;4986268;28;20048;-70
2023/01/29 11:03:25;;;;;;;45.90;22.38;;;;;;;3.36;99.04;102615.00;4976745;28;20046;-70
2023/01/29 11:05:54;;;;;;;42.80;19.98;;;;;;;3.44;98.82;102609.72;4991470;28;20652;-71
2023/01/29 11:08:23;;;;;;;51.05;20.63;;;;;;;3.42;98.93;102604.44;4981498;28;20042;-72
2023/01/29 11:10:51;;;;;;;46.45;20.10;;;;;;;3.47;98.75;102609.69;4981706;28;20032;-71
2023/01/29 11:13:17;;;;;;;42.78;20.83;;;;;;;3.48;97.98;102599.13;4987771;28;20118;-71
2023/01/29 11:15:43;;;;;;;39.92;18.80;;;;;;;3.48;97.29;102590.34;4984505;28;20090;-71
2023/01/29 11:18:14;;;;;;;45.03;19.30;;;;;;;3.47;97.69;102586.84;4976799;28;20050;-71
2023/01/29 11:20:42;;;;;;;40.88;18.63;;;;;;;3.47;97.81;102581.56;4969664;28;20075;-71
2023/01/29 11:23:34;;;;;;;43.38;21.42;;;;;;;3.69;96.13;102574.38;4977381;28;20510;-71
2023/01/29 11:26:00;;;;;;;42.22;20.08;;;;;;;3.69;95.95;102565.59;4978551;28;20050;-71
2023/01/29 11:28:38;;;;;;;40.65;18.55;;;;;;;3.67;96.12;102549.78;4970288;28;20038;-70
2023/01/29 11:31:20;;;;;;;39.33;19.15;;;;;;;3.74;95.15;102554.13;4978978;28;20046;-71
2023/01/29 11:33:49;;;;;;;44.83;20.15;;;;;;;3.77;94.87;102540.91;4973758;28;20188;-71
2023/01/29 11:36:31;;;;;;;51.55;20.52;;;;;;;3.77;94.40;102537.41;4982349;28;20129;-71
2023/01/29 11:39:20;;;;;;;37.47;18.30;;;;;;;3.76;93.87;102530.34;4976515;28;20081;-71
2023/01/29 11:41:59;;;;;;;44.10;21.73;;;;;;;3.70;94.78;102530.41;4980731;28;20042;-71
2023/01/29 11:44:39;;;;;;;42.95;20.13;;;;;;;3.86;94.14;102524.13;4972267;28;20042;-71
2023/01/29 11:47:19;;;;;;;41.22;20.17;;;;;;;4.07;93.49;102521.31;4981501;28;20037;-71
2023/01/29 11:49:53;;;;;;;37.13;19.35;;;;;;;4.03;93.11;102523.97;4976486;28;20125;-71
2023/01/29 11:52:24;;;;;;;53.75;20.38;;;;;;;4.03;93.38;102522.22;4974063;28;20089;-71